createdAt,value
2023-02-11T00:01:41.418Z,84.17
2023-02-11T00:04:08.455Z,82.50
2023-02-11T00:06:41.080Z,78.20
2023-02-11T00:09:08.427Z,80.87
2023-02-11T00:11:35.319Z,78.10
2023-02-11T00:14:05.973Z,83.77
2023-02-11T00:16:33.115Z,81.30
2023-02-11T00:19:01.694Z,77.50
2023-02-11T00:21:29.340Z,94.00
2023-02-11T00:24:02.138Z,88.47
2023-02-11T00:26:35.516Z,84.47
2023-02-11T00:29:05.730Z,91.33
2023-02-11T00:31:33.172Z,93.77
2023-02-11T00:34:00.342Z,90.70
2023-02-11T00:36:32.246Z,89.20
2023-02-11T00:39:00.138Z,89.00
2023-02-11T00:41:27.278Z,88.63
2023-02-11T00:43:59.084Z,99.60
2023-02-11T00:46:26.085Z,91.83
2023-02-11T00:48:57.572Z,87.70
2023-02-11T00:51:26.491Z,88.27
2023-02-11T00:53:56.067Z,84.13
2023-02-11T00:56:26.264Z,79.70
2023-02-11T00:58:53.983Z,82.27
2023-02-11T01:01:21.566Z,90.97
2023-02-11T01:03:51.235Z,89.87
2023-02-11T01:06:21.196Z,85.90
2023-02-11T01:08:48.133Z,79.37
2023-02-11T01:11:21.348Z,94.43
2023-02-11T01:13:50.280Z,80.33
2023-02-11T01:16:21.070Z,105.97
2023-02-11T01:18:48.240Z,93.33
2023-02-11T01:21:17.895Z,79.10
2023-02-11T01:23:45.152Z,88.10
2023-02-11T01:26:12.142Z,84.63
2023-02-11T01:28:43.750Z,86.00
2023-02-11T01:31:10.860Z,108.43
2023-02-11T01:33:43.022Z,82.00
2023-02-11T01:36:11.186Z,76.93
2023-02-11T01:38:41.159Z,96.23
2023-02-11T01:41:11.857Z,93.17
2023-02-11T01:43:49.838Z,74.40
2023-02-11T01:46:41.277Z,82.07
2023-02-11T01:49:17.460Z,90.93
2023-02-11T01:51:52.773Z,86.57
2023-02-11T01:54:43.712Z,78.00
2023-02-11T01:57:22.405Z,87.00
2023-02-11T01:59:58.478Z,91.13
2023-02-11T02:03:07.122Z,75.97
2023-02-11T02:05:54.424Z,81.93
2023-02-11T02:08:31.054Z,84.67
2023-02-11T02:11:01.033Z,83.33
2023-02-11T02:13:31.126Z,76.17
2023-02-11T02:16:09.913Z,80.67
2023-02-11T02:19:17.558Z,90.93
2023-02-11T02:22:22.920Z,79.80
2023-02-11T02:25:08.571Z,80.20
2023-02-11T02:28:25.941Z,81.77
2023-02-11T02:31:27.385Z,76.63
2023-02-11T02:34:14.471Z,80.00
2023-02-11T02:37:22.170Z,83.10
2023-02-11T02:39:53.542Z,91.00
2023-02-11T02:42:27.456Z,82.93
2023-02-11T02:44:56.650Z,87.73
2023-02-11T02:47:26.191Z,79.60
2023-02-11T02:49:55.429Z,87.40
2023-02-11T02:52:44.100Z,87.20
2023-02-11T02:55:22.889Z,81.33
2023-02-11T02:58:01.630Z,84.40
2023-02-11T03:00:44.262Z,88.97
2023-02-11T03:03:40.764Z,93.10
2023-02-11T03:06:26.821Z,87.47
2023-02-11T03:09:02.315Z,86.20
2023-02-11T03:11:32.068Z,87.63
2023-02-11T03:14:06.735Z,80.30
2023-02-11T03:16:40.192Z,97.27
2023-02-11T03:19:33.524Z,90.47
2023-02-11T03:22:03.740Z,87.70
2023-02-11T03:24:35.360Z,89.93
2023-02-11T03:27:13.083Z,90.07
2023-02-11T03:29:51.917Z,93.60
2023-02-11T03:32:37.725Z,89.10
2023-02-11T03:35:12.653Z,84.37
2023-02-11T03:37:52.287Z,88.60
2023-02-11T03:40:32.426Z,95.77
2023-02-11T03:43:10.138Z,77.40
2023-02-11T03:45:39.027Z,88.90
2023-02-11T03:48:16.647Z,96.60
2023-02-11T03:50:46.737Z,82.00
2023-02-11T03:53:17.701Z,77.63
2023-02-11T03:55:49.198Z,89.70
2023-02-11T03:58:19.018Z,87.40
2023-02-11T04:00:46.325Z,77.77
2023-02-11T04:03:16.043Z,85.70
2023-02-11T04:05:43.622Z,74.07
2023-02-11T04:08:10.983Z,78.63
2023-02-11T04:10:37.953Z,74.73
2023-02-11T04:13:04.840Z,74.17
2023-02-11T04:15:34.098Z,78.67
2023-02-11T04:18:03.552Z,74.43
2023-02-11T04:20:33.290Z,83.53
2023-02-11T04:23:03.757Z,81.10
2023-02-11T04:25:37.184Z,93.00
2023-02-11T04:28:06.633Z,74.47
2023-02-11T04:30:33.773Z,69.50
2023-02-11T04:33:02.968Z,77.33
2023-02-11T04:35:32.405Z,77.80
2023-02-11T04:37:59.375Z,79.90
2023-02-11T04:40:26.257Z,71.47
2023-02-11T04:42:53.392Z,74.63
2023-02-11T04:45:20.499Z,82.40
2023-02-11T04:47:47.553Z,63.93
2023-02-11T04:50:15.364Z,69.47
2023-02-11T04:52:44.594Z,81.43
2023-02-11T04:55:12.892Z,74.47
2023-02-11T04:57:39.902Z,73.73
2023-02-11T05:00:12.428Z,60.83
2023-02-11T05:02:39.511Z,77.97
2023-02-11T05:05:09.088Z,76.30
2023-02-11T05:07:36.073Z,63.77
2023-02-11T05:10:03.407Z,60.67
2023-02-11T05:12:30.365Z,68.33
2023-02-11T05:14:59.462Z,66.23
2023-02-11T05:17:28.989Z,72.63
2023-02-11T05:19:55.818Z,57.00
2023-02-11T05:22:22.723Z,58.53
2023-02-11T05:24:50.392Z,52.87
2023-02-11T05:27:17.301Z,62.27
2023-02-11T05:29:44.241Z,62.23
2023-02-11T05:32:13.692Z,60.97
2023-02-11T05:34:47.656Z,61.60
2023-02-11T05:37:14.840Z,74.40
2023-02-11T05:39:41.942Z,70.53
2023-02-11T05:42:09.393Z,68.80
2023-02-11T05:44:36.403Z,64.20
2023-02-11T05:47:08.633Z,61.50
2023-02-11T05:49:35.830Z,59.63
2023-02-11T05:52:05.253Z,58.57
2023-02-11T05:54:32.181Z,58.40
2023-02-11T05:57:00.733Z,64.43
2023-02-11T05:59:27.666Z,66.53
2023-02-11T06:01:54.622Z,57.63
2023-02-11T06:04:28.689Z,56.50
2023-02-11T06:06:55.603Z,68.27
2023-02-11T06:09:22.584Z,53.07
2023-02-11T06:11:49.526Z,51.30
2023-02-11T06:14:18.767Z,42.87
2023-02-11T06:16:48.235Z,47.33
2023-02-11T06:19:15.207Z,63.70
2023-02-11T06:21:47.002Z,55.00
2023-02-11T06:24:14.045Z,44.20
2023-02-11T06:26:41.099Z,57.27
2023-02-11T06:29:08.218Z,46.13
2023-02-11T06:31:41.131Z,47.67
2023-02-11T06:34:10.668Z,50.30
2023-02-11T06:36:40.076Z,50.60
2023-02-11T06:39:10.087Z,50.63
2023-02-11T06:41:37.780Z,50.20
2023-02-11T06:44:09.356Z,55.33
2023-02-11T06:46:38.885Z,41.40
2023-02-11T06:49:05.824Z,44.80
2023-02-11T06:51:32.757Z,56.17
2023-02-11T06:54:02.176Z,53.77
2023-02-11T06:56:30.378Z,42.93
2023-02-11T06:59:00.271Z,47.00
2023-02-11T07:01:28.381Z,52.33
2023-02-11T07:03:58.952Z,36.07
2023-02-11T07:06:28.077Z,48.30
2023-02-11T07:08:56.090Z,44.67
2023-02-11T07:11:29.107Z,43.07
2023-02-11T07:14:02.183Z,48.40
2023-02-11T07:16:29.274Z,49.90
2023-02-11T07:18:58.870Z,52.43
2023-02-11T07:21:26.122Z,40.43
2023-02-11T07:23:55.778Z,44.70
2023-02-11T07:26:26.254Z,43.03
2023-02-11T07:28:53.520Z,34.93
2023-02-11T07:31:31.239Z,43.50
2023-02-11T07:34:02.037Z,44.47
2023-02-11T07:36:32.175Z,38.20
2023-02-11T07:39:00.242Z,46.90
2023-02-11T07:41:28.045Z,42.80
2023-02-11T07:43:55.573Z,39.47
2023-02-11T07:46:29.500Z,48.47
2023-02-11T07:48:56.731Z,33.20
2023-02-11T07:51:31.446Z,32.70
2023-02-11T07:54:00.160Z,35.67
2023-02-11T07:56:28.741Z,39.07
2023-02-11T07:58:59.622Z,36.53
2023-02-11T08:01:28.627Z,33.17
2023-02-11T08:04:00.911Z,37.87
2023-02-11T08:06:31.961Z,35.47
2023-02-11T08:09:04.710Z,36.90
2023-02-11T08:11:35.397Z,39.13
2023-02-11T08:14:02.581Z,39.87
2023-02-11T08:16:33.026Z,37.23
2023-02-11T08:19:05.696Z,39.73
2023-02-11T08:21:38.992Z,36.10
2023-02-11T08:24:06.938Z,33.53
2023-02-11T08:26:35.766Z,32.03
2023-02-11T08:29:12.822Z,23.80
2023-02-11T08:31:43.320Z,32.97
2023-02-11T08:34:14.365Z,31.27
2023-02-11T08:36:43.030Z,34.37
2023-02-11T08:39:20.684Z,41.33
2023-02-11T08:41:56.637Z,26.97
2023-02-11T08:44:26.263Z,29.23
2023-02-11T08:46:53.983Z,38.37
2023-02-11T08:49:23.757Z,23.50
2023-02-11T08:51:50.818Z,22.77
2023-02-11T08:54:17.872Z,34.33
2023-02-11T08:56:45.695Z,27.50
2023-02-11T08:59:17.816Z,23.43
2023-02-11T09:01:46.631Z,20.27
2023-02-11T09:04:18.246Z,21.80
2023-02-11T09:06:45.691Z,24.33
2023-02-11T09:09:16.399Z,29.70
2023-02-11T09:11:46.081Z,25.77
2023-02-11T09:14:22.410Z,27.17
2023-02-11T09:16:56.780Z,29.53
2023-02-11T09:19:25.924Z,21.90
2023-02-11T09:21:52.849Z,22.20
2023-02-11T09:24:22.245Z,19.00
2023-02-11T09:26:56.072Z,15.90
2023-02-11T09:29:22.999Z,20.47
2023-02-11T09:31:51.638Z,21.50
2023-02-11T09:34:22.437Z,18.70
2023-02-11T09:36:49.850Z,18.93
2023-02-11T09:39:20.264Z,24.03
2023-02-11T09:42:05.551Z,28.87
2023-02-11T09:44:36.035Z,22.67
2023-02-11T09:47:29.313Z,20.87
2023-02-11T09:50:04.851Z,25.77
2023-02-11T09:52:55.634Z,17.83
2023-02-11T09:55:37.993Z,18.77
2023-02-11T09:58:16.557Z,20.83
2023-02-11T10:01:08.831Z,15.03
2023-02-11T10:04:27.342Z,17.70
2023-02-11T10:07:03.320Z,25.77
2023-02-11T10:09:48.377Z,17.03
2023-02-11T10:12:39.509Z,16.03
2023-02-11T10:15:12.943Z,15.13
2023-02-11T10:18:28.675Z,21.20
2023-02-11T10:21:40.650Z,15.63
2023-02-11T10:24:13.015Z,24.20
2023-02-11T10:26:43.282Z,15.13
2023-02-11T10:29:39.126Z,17.80
2023-02-11T10:32:27.399Z,17.73
2023-02-11T10:35:02.235Z,16.20
2023-02-11T10:37:30.251Z,15.33
2023-02-11T10:39:57.190Z,14.93
2023-02-11T10:42:26.039Z,12.80
2023-02-11T10:45:14.541Z,12.40
2023-02-11T10:47:42.350Z,20.00
2023-02-11T10:50:30.171Z,28.20
2023-02-11T10:53:17.621Z,13.03
2023-02-11T10:55:54.811Z,14.53
2023-02-11T10:58:41.916Z,13.90
2023-02-11T11:01:23.890Z,16.20
2023-02-11T11:03:55.539Z,15.07
2023-02-11T11:06:32.269Z,13.97
2023-02-11T11:08:59.393Z,10.80
2023-02-11T11:11:27.551Z,11.30
2023-02-11T11:13:54.462Z,12.67
2023-02-11T11:16:33.491Z,13.70
2023-02-11T11:19:08.620Z,16.50
2023-02-11T11:21:47.469Z,11.13
2023-02-11T11:24:25.540Z,12.00
2023-02-11T11:27:00.884Z,9.13
2023-02-11T11:29:43.250Z,11.60
2023-02-11T11:32:20.721Z,13.23
2023-02-11T11:34:57.262Z,13.20
2023-02-11T11:37:30.265Z,17.60
2023-02-11T11:40:02.665Z,12.63
2023-02-11T11:42:38.203Z,14.70
2023-02-11T11:45:24.807Z,11.97
2023-02-11T11:48:20.973Z,10.53
2023-02-11T11:50:53.133Z,15.50
2023-02-11T11:53:40.858Z,16.83
2023-02-11T11:56:18.875Z,18.63
2023-02-11T11:58:48.388Z,15.63
2023-02-11T12:01:39.550Z,11.70
2023-02-11T12:04:37.507Z,15.97
2023-02-11T12:07:50.648Z,12.23
2023-02-11T12:10:52.618Z,17.07
2023-02-11T12:13:44.158Z,11.90
2023-02-11T12:16:27.304Z,16.90
2023-02-11T12:19:33.269Z,12.80
2023-02-11T12:22:40.616Z,15.57
2023-02-11T12:25:29.896Z,18.17
2023-02-11T12:28:43.514Z,13.53
2023-02-11T12:31:38.287Z,18.63
2023-02-11T12:34:32.477Z,15.77
2023-02-11T12:37:07.850Z,19.00
2023-02-11T12:40:15.009Z,14.67
2023-02-11T12:43:21.202Z,20.20
2023-02-11T12:46:11.535Z,18.37
2023-02-11T12:49:24.002Z,19.13
2023-02-11T12:52:16.254Z,13.37
2023-02-11T12:55:03.768Z,26.13
2023-02-11T12:57:33.530Z,26.53
2023-02-11T13:00:30.384Z,15.20
2023-02-11T13:03:02.557Z,22.73
2023-02-11T13:05:46.211Z,18.00
2023-02-11T13:08:31.295Z,16.50
2023-02-11T13:11:14.284Z,12.37
2023-02-11T13:14:01.090Z,10.03
2023-02-11T13:16:44.112Z,17.97
2023-02-11T13:19:14.112Z,18.20
2023-02-11T13:22:04.165Z,13.13
2023-02-11T13:24:57.205Z,12.57
2023-02-11T13:27:41.551Z,16.93
2023-02-11T13:30:34.836Z,12.03
2023-02-11T13:33:03.326Z,7.60
2023-02-11T13:35:37.909Z,10.50
2023-02-11T13:38:21.645Z,10.50
2023-02-11T13:41:19.428Z,6.20
2023-02-11T13:44:09.357Z,8.97
2023-02-11T13:47:05.064Z,9.03
2023-02-11T13:49:42.159Z,9.83
2023-02-11T13:52:28.322Z,11.53
2023-02-11T13:55:02.868Z,7.40
2023-02-11T13:57:36.404Z,9.30
2023-02-11T14:00:32.518Z,5.40
2023-02-11T14:03:30.396Z,7.33
2023-02-11T14:06:27.944Z,5.27
2023-02-11T14:09:10.156Z,7.27
2023-02-11T14:11:52.301Z,5.57
2023-02-11T14:14:27.477Z,4.50
2023-02-11T14:17:03.222Z,4.97
2023-02-11T14:19:35.057Z,5.27
2023-02-11T14:22:13.601Z,5.73
2023-02-11T14:24:52.396Z,11.20
2023-02-11T14:27:45.021Z,5.20
2023-02-11T14:30:59.867Z,5.00
2023-02-11T14:34:02.064Z,5.50
2023-02-11T14:36:51.836Z,7.83
2023-02-11T14:39:45.871Z,5.70
2023-02-11T14:42:22.564Z,9.37
2023-02-11T14:44:55.928Z,15.97
2023-02-11T14:47:35.565Z,6.23
2023-02-11T14:50:03.009Z,9.50
2023-02-11T14:52:35.781Z,9.03
2023-02-11T14:55:52.249Z,5.40
2023-02-11T14:58:34.801Z,7.13
2023-02-11T15:01:23.588Z,6.63
2023-02-11T15:03:50.799Z,6.40
2023-02-11T15:06:42.673Z,5.87
2023-02-11T15:09:44.248Z,5.77
2023-02-11T15:12:23.812Z,6.10
2023-02-11T15:15:04.170Z,7.90
2023-02-11T15:17:32.946Z,10.87
2023-02-11T15:20:02.014Z,6.33
2023-02-11T15:22:33.427Z,6.43
2023-02-11T15:25:19.605Z,6.03
2023-02-11T15:27:57.719Z,9.10
2023-02-11T15:30:30.865Z,10.00
2023-02-11T15:33:02.761Z,16.87
2023-02-11T15:35:40.988Z,8.97
2023-02-11T15:38:13.335Z,6.43
2023-02-11T15:40:40.398Z,9.47
2023-02-11T15:43:10.397Z,8.30
2023-02-11T15:45:55.134Z,9.90
2023-02-11T15:48:33.552Z,10.30
2023-02-11T15:51:25.384Z,15.73
2023-02-11T15:54:02.312Z,11.43
2023-02-11T15:56:37.527Z,7.33
2023-02-11T15:59:25.800Z,9.83
2023-02-11T16:01:54.709Z,8.70
2023-02-11T16:04:28.580Z,7.30
2023-02-11T16:07:00.913Z,11.07
2023-02-11T16:09:36.147Z,10.90
2023-02-11T16:12:27.055Z,18.67
2023-02-11T16:14:59.694Z,16.73
2023-02-11T16:17:28.951Z,27.17
2023-02-11T16:19:58.539Z,17.10
2023-02-11T16:22:35.419Z,18.80
2023-02-11T16:25:05.787Z,6.70
2023-02-11T16:27:41.961Z,11.03
2023-02-11T16:30:39.797Z,11.60
2023-02-11T16:33:06.855Z,10.63
2023-02-11T16:35:33.840Z,12.70
2023-02-11T16:38:00.751Z,23.07
2023-02-11T16:40:30.282Z,13.67
2023-02-11T16:42:57.177Z,13.13
2023-02-11T16:45:29.294Z,16.37
2023-02-11T16:47:56.443Z,10.90
2023-02-11T16:50:27.023Z,9.10
2023-02-11T16:52:56.533Z,16.60
2023-02-11T16:55:26.047Z,14.13
2023-02-11T16:57:55.435Z,9.50
2023-02-11T17:00:25.419Z,23.53
2023-02-11T17:02:52.439Z,18.53
2023-02-11T17:05:23.075Z,16.40
2023-02-11T17:07:52.463Z,13.10
2023-02-11T17:10:24.393Z,15.83
2023-02-11T17:12:52.496Z,16.03
2023-02-11T17:15:19.422Z,24.10
2023-02-11T17:17:49.337Z,32.93
2023-02-11T17:20:16.846Z,17.40
2023-02-11T17:22:43.820Z,24.10
2023-02-11T17:25:17.876Z,18.60
2023-02-11T17:27:45.470Z,22.73
2023-02-11T17:30:16.837Z,25.87
2023-02-11T17:32:43.848Z,15.07
2023-02-11T17:35:15.807Z,25.50
2023-02-11T17:37:45.250Z,16.63
2023-02-11T17:40:13.313Z,18.30
2023-02-11T17:42:40.266Z,16.73
2023-02-11T17:45:08.907Z,26.30
2023-02-11T17:47:36.537Z,38.03
2023-02-11T17:50:04.097Z,34.17
2023-02-11T17:52:31.360Z,27.70
2023-02-11T17:54:58.246Z,32.63
2023-02-11T17:57:25.081Z,30.33
2023-02-11T17:59:52.027Z,37.07
2023-02-11T18:02:18.939Z,23.70
2023-02-11T18:04:45.908Z,26.73
2023-02-11T18:07:19.365Z,33.10
2023-02-11T18:09:48.667Z,48.00
2023-02-11T18:12:17.863Z,31.83
2023-02-11T18:14:44.828Z,29.37
2023-02-11T18:17:13.831Z,34.80
2023-02-11T18:19:42.973Z,35.70
2023-02-11T18:22:12.223Z,27.67
2023-02-11T18:24:41.585Z,32.17
2023-02-11T18:27:09.965Z,48.37
2023-02-11T18:29:41.486Z,23.73
2023-02-11T18:32:08.414Z,38.57
2023-02-11T18:34:35.385Z,32.60
2023-02-11T18:37:05.003Z,31.80
2023-02-11T18:42:16.463Z,31.73
2023-02-11T18:44:43.562Z,25.10
2023-02-11T18:47:14.172Z,20.43
2023-02-11T18:49:45.086Z,42.17
2023-02-11T18:52:13.745Z,32.07
2023-02-11T18:54:43.656Z,23.57
2023-02-11T18:57:13.899Z,24.03
2023-02-11T18:59:42.953Z,25.10
2023-02-11T19:02:16.409Z,21.17
2023-02-11T19:04:45.164Z,26.27
2023-02-11T19:07:12.164Z,18.40
2023-02-11T19:09:42.817Z,26.87
2023-02-11T19:12:12.474Z,33.20
2023-02-11T19:14:42.106Z,22.27
2023-02-11T19:17:13.549Z,22.77
2023-02-11T19:19:43.447Z,35.67
2023-02-11T19:22:14.349Z,26.93
2023-02-11T19:24:44.967Z,15.63
2023-02-11T19:27:13.426Z,26.80
2023-02-11T19:29:44.839Z,15.30
2023-02-11T19:32:16.426Z,34.70
2023-02-11T19:34:46.218Z,28.37
2023-02-11T19:37:14.290Z,19.83
2023-02-11T19:39:44.324Z,20.20
2023-02-11T19:42:13.205Z,20.27
2023-02-11T19:44:41.029Z,19.50
2023-02-11T19:47:12.785Z,21.20
2023-02-11T19:49:41.218Z,21.07
2023-02-11T19:52:08.104Z,28.20
2023-02-11T19:54:35.866Z,13.53
2023-02-11T19:57:05.472Z,15.13
2023-02-11T19:59:36.212Z,18.03
2023-02-11T20:02:03.778Z,18.87
2023-02-11T20:04:32.269Z,22.83
2023-02-11T20:07:01.082Z,20.67
2023-02-11T20:09:29.065Z,23.83
2023-02-11T20:12:01.524Z,21.97
2023-02-11T20:14:29.155Z,23.60
2023-02-11T20:16:56.318Z,22.40
2023-02-11T20:19:25.580Z,27.80
2023-02-11T20:21:55.567Z,23.93
2023-02-11T20:24:24.272Z,23.30
2023-02-11T20:26:55.539Z,35.70
2023-02-11T20:29:26.368Z,38.03
2023-02-11T20:31:54.416Z,29.20
2023-02-11T20:34:25.038Z,22.07
2023-02-11T20:36:54.942Z,26.13
2023-02-11T20:39:26.807Z,27.87
2023-02-11T20:41:54.989Z,34.93
2023-02-11T20:44:25.154Z,23.43
2023-02-11T20:46:54.696Z,28.53
2023-02-11T20:49:28.259Z,41.20
2023-02-11T20:51:56.857Z,32.47
2023-02-11T20:54:25.918Z,32.60
2023-02-11T20:56:55.574Z,38.03
2023-02-11T20:59:23.597Z,29.00
2023-02-11T21:01:55.571Z,36.27
2023-02-11T21:04:32.900Z,33.63
2023-02-11T21:07:02.150Z,27.53
2023-02-11T21:09:33.750Z,27.70
2023-02-11T21:12:05.182Z,33.80
2023-02-11T21:14:34.208Z,37.30
2023-02-11T21:17:04.218Z,30.23
2023-02-11T21:19:32.193Z,30.40
2023-02-11T21:22:00.775Z,34.20
2023-02-11T21:24:29.075Z,26.63
2023-02-11T21:27:03.564Z,33.73
2023-02-11T21:29:34.026Z,29.67
2023-02-11T21:32:04.739Z,32.80
2023-02-11T21:34:33.960Z,27.33
2023-02-11T21:37:01.211Z,20.50
2023-02-11T21:39:30.465Z,29.00
2023-02-11T21:41:57.324Z,42.33
2023-02-11T21:44:24.263Z,28.53
2023-02-11T21:46:53.421Z,33.80
2023-02-11T21:49:21.380Z,28.00
2023-02-11T21:51:48.328Z,28.60
2023-02-11T21:54:15.292Z,42.03
2023-02-11T21:56:42.236Z,30.53
2023-02-11T21:59:14.025Z,29.57
2023-02-11T22:01:44.858Z,43.33
2023-02-11T22:04:12.097Z,34.77
2023-02-11T22:06:41.493Z,37.27
2023-02-11T22:09:10.743Z,36.43
2023-02-11T22:11:39.699Z,34.83
2023-02-11T22:14:06.927Z,43.20
2023-02-11T22:16:33.945Z,30.87
2023-02-11T22:19:02.397Z,37.23
2023-02-11T22:21:29.838Z,35.47
2023-02-11T22:23:58.970Z,52.97
2023-02-11T22:26:27.692Z,40.20
2023-02-11T22:28:59.364Z,46.63
2023-02-11T22:31:31.891Z,37.70
2023-02-11T22:34:01.839Z,41.80
2023-02-11T22:36:40.449Z,31.97
2023-02-11T22:39:12.718Z,49.57
2023-02-11T22:41:44.397Z,34.60
2023-02-11T22:44:11.739Z,41.83
2023-02-11T22:46:42.289Z,45.90
2023-02-11T22:49:11.881Z,29.50
2023-02-11T22:51:39.404Z,31.23
2023-02-11T22:54:09.805Z,42.33
2023-02-11T22:56:42.044Z,34.40
2023-02-11T22:59:14.475Z,39.87
2023-02-11T23:01:42.648Z,45.00
2023-02-11T23:04:14.819Z,43.10
2023-02-11T23:06:41.874Z,53.57
2023-02-11T23:09:12.265Z,43.63
2023-02-11T23:11:42.402Z,53.30
2023-02-11T23:14:13.732Z,49.03
2023-02-11T23:16:42.961Z,36.90
2023-02-11T23:19:11.017Z,57.10
2023-02-11T23:21:41.257Z,35.10
2023-02-11T23:24:13.412Z,44.10
2023-02-11T23:26:43.131Z,49.67
2023-02-11T23:29:11.092Z,48.83
2023-02-11T23:31:46.119Z,37.70
2023-02-11T23:34:17.296Z,51.73
2023-02-11T23:36:44.617Z,46.83
2023-02-11T23:39:15.525Z,33.40
2023-02-11T23:41:42.451Z,32.80
2023-02-11T23:44:10.469Z,40.57
2023-02-11T23:46:37.698Z,45.03
2023-02-11T23:49:07.342Z,35.63
2023-02-11T23:51:36.350Z,41.20
2023-02-11T23:54:03.364Z,41.83
2023-02-11T23:56:30.618Z,34.53
2023-02-11T23:59:00.042Z,27.30
